Time;durP1;ratioP1;P1;durP2;ratioP2;P2;SDS_P1;SDS_P2;PMS_P1;PMS_P2;Temp;Humidity;BMP_temperature;BMP_pressure;BME280_temperature;BME280_humidity;BME280_pressure;Samples;Min_cycle;Max_cycle;Signal;HPM_P1;HPM_P2
2023/10/10 00:00:04;;;;;;;3.60;2.60;;;13.90;93.40;;;;;;5100119;27;20620;-70
2023/10/10 00:02:31;;;;;;;4.07;2.73;;;14.00;93.90;;;;;;5101022;27;20988;-70
2023/10/10 00:05:08;;;;;;;6.33;2.57;;;13.90;94.40;;;;;;5099767;27;21200;-70
2023/10/10 00:07:35;;;;;;;6.47;2.70;;;13.90;94.40;;;;;;5100021;27;20622;-70
2023/10/10 00:10:02;;;;;;;4.47;3.60;;;13.90;94.10;;;;;;5101894;27;20629;-69
2023/10/10 00:12:30;;;;;;;4.63;2.80;;;13.80;94.30;;;;;;5100140;27;20636;-69
2023/10/10 00:15:05;;;;;;;7.30;3.20;;;13.70;94.10;;;;;;5099938;27;21024;-70
2023/10/10 00:17:36;;;;;;;7.97;3.30;;;13.70;94.00;;;;;;5099283;27;21060;-69
2023/10/10 00:20:16;;;;;;;4.43;3.17;;;13.80;94.00;;;;;;5098768;27;20712;-69
2023/10/10 00:22:47;;;;;;;7.30;3.93;;;13.70;94.10;;;;;;5099936;27;20649;-69
2023/10/10 00:25:16;;;;;;;5.13;2.73;;;13.80;94.20;;;;;;5097005;27;21052;-69
2023/10/10 00:27:44;;;;;;;9.03;2.87;;;13.80;94.00;;;;;;5096792;27;21168;-70
2023/10/10 00:30:11;;;;;;;9.33;4.00;;;13.70;93.90;;;;;;5101528;27;20641;-70
2023/10/10 00:32:42;;;;;;;10.30;2.93;;;13.70;94.10;;;;;;5098577;27;20663;-70
2023/10/10 00:35:10;;;;;;;6.70;2.83;;;13.70;94.10;;;;;;5102176;27;20673;-70
2023/10/10 00:37:37;;;;;;;13.53;3.33;;;13.80;94.20;;;;;;5098183;27;21433;-70
2023/10/10 00:40:08;;;;;;;6.33;2.33;;;13.70;94.20;;;;;;5098138;27;20695;-69
2023/10/10 00:42:40;;;;;;;5.57;2.90;;;13.70;94.30;;;;;;5101398;27;21212;-69
2023/10/10 00:45:12;;;;;;;10.57;3.93;;;13.70;94.50;;;;;;5099325;27;20984;-70
2023/10/10 00:47:42;;;;;;;11.80;3.30;;;13.70;94.90;;;;;;5099565;27;21026;-69
2023/10/10 00:50:16;;;;;;;4.27;3.03;;;13.70;94.60;;;;;;5100814;27;21726;-70
2023/10/10 00:52:44;;;;;;;8.07;3.23;;;13.70;94.40;;;;;;5098323;27;20617;-70
2023/10/10 00:55:12;;;;;;;5.07;2.60;;;13.80;94.40;;;;;;5097078;27;20771;-70
2023/10/10 00:57:40;;;;;;;6.30;3.10;;;13.70;94.30;;;;;;5095931;27;20964;-70
2023/10/10 01:00:09;;;;;;;4.93;2.97;;;13.60;94.40;;;;;;5099170;27;20629;-70
2023/10/10 01:02:37;;;;;;;8.90;3.40;;;13.60;95.00;;;;;;5099146;27;20630;-70
2023/10/10 01:05:12;;;;;;;4.80;2.17;;;13.60;95.40;;;;;;5097998;27;20627;-70
2023/10/10 01:07:40;;;;;;;8.87;3.23;;;13.60;95.50;;;;;;5096957;27;20747;-70
2023/10/10 01:10:12;;;;;;;3.77;2.63;;;13.50;95.80;;;;;;5097196;27;20991;-70
2023/10/10 01:12:40;;;;;;;8.33;3.87;;;13.50;95.40;;;;;;5099814;27;20735;-70
2023/10/10 01:15:14;;;;;;;3.17;2.23;;;13.40;95.60;;;;;;5100513;27;20695;-70
2023/10/10 01:17:44;;;;;;;11.57;4.07;;;13.30;95.70;;;;;;5099399;27;20617;-70
2023/10/10 01:20:18;;;;;;;7.00;4.07;;;13.20;95.60;;;;;;5097818;27;20621;-70
2023/10/10 01:22:48;;;;;;;6.67;3.40;;;13.30;95.70;;;;;;5096544;27;20619;-70
2023/10/10 01:25:41;;;;;;;8.27;2.90;;;13.10;95.80;;;;;;5097354;27;20631;-70
2023/10/10 01:28:22;;;;;;;5.23;3.10;;;13.10;95.80;;;;;;5097675;27;20620;-70
2023/10/10 01:31:03;;;;;;;10.60;3.80;;;13.20;95.60;;;;;;5097218;27;20624;-70
2023/10/10 01:33:42;;;;;;;5.93;3.57;;;13.20;95.80;;;;;;5098172;27;20688;-70
2023/10/10 01:36:12;;;;;;;5.20;3.20;;;13.20;95.60;;;;;;5096986;27;21218;-70
2023/10/10 01:39:09;;;;;;;8.33;3.20;;;13.20;95.60;;;;;;5099304;27;20628;-70
2023/10/10 01:41:39;;;;;;;5.23;2.67;;;13.20;95.60;;;;;;5097484;27;20697;-70
2023/10/10 01:44:12;;;;;;;5.17;3.40;;;13.10;95.80;;;;;;5099476;27;20686;-70
2023/10/10 01:46:41;;;;;;;17.07;4.03;;;13.10;96.00;;;;;;5096913;27;20651;-70
2023/10/10 01:49:13;;;;;;;3.30;3.00;;;13.10;95.80;;;;;;5097508;27;20629;-70
2023/10/10 01:51:43;;;;;;;6.53;2.50;;;13.10;95.80;;;;;;5098421;27;20739;-71
2023/10/10 01:54:15;;;;;;;5.97;2.87;;;13.10;95.90;;;;;;5097553;27;20664;-70
2023/10/10 01:56:44;;;;;;;4.50;3.00;;;13.10;96.00;;;;;;5096551;27;20614;-70
2023/10/10 01:59:19;;;;;;;11.77;2.80;;;13.10;96.00;;;;;;5096793;27;20633;-70
2023/10/10 02:01:47;;;;;;;6.67;3.10;;;13.00;96.00;;;;;;5098503;27;20731;-70
2023/10/10 02:04:14;;;;;;;3.73;3.17;;;13.00;96.40;;;;;;5095988;27;20616;-70
2023/10/10 02:06:45;;;;;;;5.53;2.90;;;12.90;96.50;;;;;;5095884;27;21184;-70
2023/10/10 02:09:27;;;;;;;5.13;2.80;;;12.80;96.40;;;;;;5100113;27;20662;-70
2023/10/10 02:11:55;;;;;;;5.13;2.93;;;12.80;96.60;;;;;;5097077;27;20633;-70
2023/10/10 02:14:25;;;;;;;5.90;3.07;;;12.80;96.60;;;;;;5096523;27;21061;-70
2023/10/10 02:16:54;;;;;;;5.70;3.00;;;12.90;96.50;;;;;;5096856;27;20632;-70
2023/10/10 02:19:32;;;;;;;3.13;2.63;;;12.80;96.50;;;;;;5096630;27;20628;-70
2023/10/10 02:22:12;;;;;;;4.97;3.40;;;12.80;97.10;;;;;;5095269;27;20701;-70
2023/10/10 02:24:41;;;;;;;6.20;2.73;;;12.90;97.00;;;;;;5095215;27;20622;-70
2023/10/10 02:27:12;;;;;;;4.50;2.27;;;12.80;97.10;;;;;;5095672;27;20613;-70
2023/10/10 02:29:47;;;;;;;7.47;2.70;;;12.80;97.20;;;;;;5096337;27;20731;-70
2023/10/10 02:32:19;;;;;;;7.80;3.10;;;12.90;96.80;;;;;;5099199;27;20624;-70
2023/10/10 02:34:55;;;;;;;9.40;3.37;;;12.90;96.70;;;;;;5095685;28;20764;-70
2023/10/10 02:40:13;;;;;;;3.50;2.50;;;12.80;97.00;;;;;;5099106;27;20769;-70
2023/10/10 02:42:47;;;;;;;14.63;3.47;;;12.80;97.10;;;;;;5096535;27;20631;-70
2023/10/10 02:45:14;;;;;;;6.50;3.37;;;12.80;97.00;;;;;;5094175;27;20624;-70
2023/10/10 02:47:46;;;;;;;2.80;2.40;;;12.80;97.00;;;;;;5095649;28;20624;-70
2023/10/10 02:50:14;;;;;;;14.00;3.07;;;12.80;97.20;;;;;;5096242;28;20624;-70
2023/10/10 02:52:45;;;;;;;4.60;2.77;;;12.70;97.20;;;;;;5096203;28;20624;-70
2023/10/10 02:55:16;;;;;;;6.90;3.23;;;12.70;97.50;;;;;;5095627;28;20667;-70
2023/10/10 02:57:43;;;;;;;5.20;2.77;;;12.70;97.50;;;;;;5095139;28;20636;-70
2023/10/10 03:00:28;;;;;;;7.20;3.17;;;12.70;97.30;;;;;;5101826;28;21019;-70
2023/10/10 03:02:58;;;;;;;7.00;3.17;;;12.80;97.40;;;;;;5097585;28;20626;-70
2023/10/10 03:05:43;;;;;;;8.87;3.50;;;12.70;97.10;;;;;;5098364;28;21224;-70
2023/10/10 03:08:18;;;;;;;12.30;3.63;;;12.70;97.20;;;;;;5099555;28;20628;-70
2023/10/10 03:10:54;;;;;;;3.77;2.80;;;12.50;97.30;;;;;;5095841;28;20624;-69
2023/10/10 03:13:42;;;;;;;4.50;3.20;;;12.60;97.90;;;;;;5095321;28;20990;-70
2023/10/10 03:19:13;;;;;;;9.10;3.97;;;12.60;98.10;;;;;;5093975;28;20621;-70
2023/10/10 03:21:45;;;;;;;5.60;3.50;;;12.60;97.80;;;;;;5097675;28;20617;-69
2023/10/10 03:24:30;;;;;;;4.60;2.30;;;12.50;97.90;;;;;;5095842;28;20631;-69
2023/10/10 03:27:11;;;;;;;6.20;2.60;;;12.50;97.90;;;;;;5094755;28;20630;-70
2023/10/10 03:29:47;;;;;;;4.33;2.13;;;12.50;97.80;;;;;;5098398;28;21021;-70
2023/10/10 03:32:25;;;;;;;4.60;2.90;;;12.50;97.70;;;;;;5093334;28;21206;-69
2023/10/10 03:34:57;;;;;;;3.73;3.10;;;12.50;98.10;;;;;;5096301;28;20745;-69
2023/10/10 03:37:39;;;;;;;2.60;2.40;;;12.50;97.90;;;;;;5095325;28;20621;-70
2023/10/10 03:40:21;;;;;;;5.10;3.20;;;12.50;97.80;;;;;;5096083;28;20733;-69
2023/10/10 05:24:29;;;;;;;3.77;2.93;;;11.50;99.90;;;;;;5096498;27;21267;-70
2023/10/10 05:26:56;;;;;;;6.33;3.03;;;11.50;99.90;;;;;;5098370;27;21170;-70
2023/10/10 05:29:24;;;;;;;5.67;3.40;;;11.40;99.90;;;;;;5096175;27;21078;-70
2023/10/10 05:31:51;;;;;;;5.23;2.97;;;11.50;99.90;;;;;;5096669;27;20624;-70
2023/10/10 05:34:22;;;;;;;4.20;3.80;;;11.50;99.90;;;;;;5094775;27;21164;-70
2023/10/10 05:36:50;;;;;;;12.53;3.83;;;11.50;99.90;;;;;;5094919;27;20668;-70
2023/10/10 05:39:20;;;;;;;5.33;3.00;;;11.50;99.90;;;;;;5097216;27;21005;-70
2023/10/10 05:41:48;;;;;;;5.73;3.30;;;11.50;99.90;;;;;;5097351;27;20642;-70
2023/10/10 05:44:16;;;;;;;4.67;3.10;;;11.50;99.90;;;;;;5098182;27;20623;-70
2023/10/10 05:46:43;;;;;;;5.80;3.30;;;11.40;99.90;;;;;;5096457;27;20687;-70
2023/10/10 05:49:10;;;;;;;7.50;2.90;;;11.50;99.90;;;;;;5095921;27;21193;-70
2023/10/10 05:51:37;;;;;;;5.27;3.27;;;11.50;99.90;;;;;;5096132;27;20719;-70
2023/10/10 05:54:07;;;;;;;4.37;2.87;;;11.40;99.90;;;;;;5095367;27;20620;-70
2023/10/10 05:56:34;;;;;;;5.60;2.73;;;11.50;99.90;;;;;;5096404;27;20678;-70
2023/10/10 05:59:02;;;;;;;7.30;3.17;;;11.50;99.90;;;;;;5096474;27;21212;-70
2023/10/10 06:01:30;;;;;;;7.57;3.57;;;11.50;99.90;;;;;;5095083;27;20647;-70
2023/10/10 06:03:57;;;;;;;5.90;3.60;;;11.60;99.90;;;;;;5094995;27;20632;-71
2023/10/10 06:06:27;;;;;;;5.70;3.50;;;11.60;99.90;;;;;;5095183;27;20693;-70
2023/10/10 06:09:00;;;;;;;7.67;4.10;;;11.60;99.90;;;;;;5095856;27;21204;-71
2023/10/10 06:11:29;;;;;;;9.10;3.30;;;11.60;99.90;;;;;;5098102;27;20732;-70
2023/10/10 06:13:56;;;;;;;4.90;3.57;;;11.50;99.90;;;;;;5112352;27;20625;-70
2023/10/10 06:16:23;;;;;;;6.60;4.40;;;11.50;99.90;;;;;;5096983;27;21000;-71
2023/10/10 06:18:50;;;;;;;9.40;2.93;;;11.50;99.90;;;;;;5095260;27;21162;-71
2023/10/10 06:21:18;;;;;;;5.03;2.83;;;11.60;99.90;;;;;;5098488;27;20617;-70
2023/10/10 06:23:45;;;;;;;7.13;3.63;;;11.60;99.90;;;;;;5096386;27;20620;-71
2023/10/10 06:26:13;;;;;;;6.47;4.00;;;11.70;99.90;;;;;;5094525;27;20981;-71
2023/10/10 06:28:47;;;;;;;5.90;3.20;;;11.70;99.90;;;;;;5095999;27;21172;-71
2023/10/10 06:31:17;;;;;;;13.83;4.03;;;11.80;99.90;;;;;;5095663;27;20628;-71
2023/10/10 06:33:44;;;;;;;7.10;4.17;;;11.80;99.90;;;;;;5098135;27;20644;-71
2023/10/10 06:41:43;;;;;;;8.47;4.10;;;12.00;99.90;;;;;;5097179;27;20624;-71
2023/10/10 06:44:13;;;;;;;4.20;2.80;;;12.10;99.90;;;;;;5095772;28;20639;-71
2023/10/10 06:46:42;;;;;;;11.10;4.00;;;12.10;99.90;;;;;;5095207;27;21071;-71
2023/10/10 06:49:12;;;;;;;10.90;4.53;;;12.20;99.90;;;;;;5094767;28;20641;-71
2023/10/10 06:51:40;;;;;;;5.83;3.20;;;12.30;99.90;;;;;;5094210;27;21414;-71
2023/10/10 06:54:08;;;;;;;8.97;4.27;;;12.40;99.90;;;;;;5096381;28;20616;-71
2023/10/10 06:56:45;;;;;;;4.87;3.43;;;12.50;99.90;;;;;;5095062;27;20803;-71
2023/10/10 06:59:16;;;;;;;6.20;3.60;;;12.60;99.90;;;;;;5095287;28;20742;-71
2023/10/10 07:01:46;;;;;;;6.80;4.13;;;12.80;99.90;;;;;;5095421;28;20713;-71
2023/10/10 07:04:13;;;;;;;9.50;5.50;;;12.80;99.90;;;;;;5094352;28;20627;-70
2023/10/10 07:06:44;;;;;;;8.50;4.57;;;12.90;99.90;;;;;;5095610;28;20743;-71
2023/10/10 07:09:17;;;;;;;9.80;5.03;;;12.90;99.90;;;;;;5096033;28;20624;-70
2023/10/10 07:11:44;;;;;;;9.97;4.30;;;13.00;99.90;;;;;;5097644;28;20686;-70
2023/10/10 07:14:15;;;;;;;6.30;4.27;;;13.10;99.90;;;;;;5095871;28;20976;-70
2023/10/10 07:16:43;;;;;;;5.57;3.80;;;13.30;99.90;;;;;;5093356;28;21098;-70
2023/10/10 07:19:21;;;;;;;5.43;3.80;;;13.40;99.70;;;;;;5095808;28;20979;-69
2023/10/10 07:21:47;;;;;;;5.57;3.70;;;13.50;99.20;;;;;;5096378;28;20631;-69
2023/10/10 07:24:15;;;;;;;5.53;3.10;;;13.60;99.10;;;;;;5096044;28;21169;-71
2023/10/10 07:26:42;;;;;;;5.87;4.27;;;13.70;99.00;;;;;;5094955;27;20716;-71
2023/10/10 07:29:57;;;;;;;8.10;3.73;;;13.80;99.10;;;;;;5094405;28;20728;-71
2023/10/10 07:32:17;;;;;;;4.77;3.07;;;13.90;98.80;;;;;;5094510;28;21775;-71
2023/10/10 07:34:49;;;;;;;6.67;3.90;;;14.10;98.60;;;;;;5095841;28;21183;-71
2023/10/10 07:37:16;;;;;;;10.63;3.70;;;14.20;98.30;;;;;;5098172;27;20679;-71
2023/10/10 07:39:56;;;;;;;9.10;3.73;;;14.30;98.40;;;;;;5099027;27;20732;-71
2023/10/10 07:42:29;;;;;;;6.27;5.30;;;14.50;98.60;;;;;;5099396;27;20640;-71
2023/10/10 07:44:56;;;;;;;6.03;4.00;;;14.60;98.30;;;;;;5098294;27;20676;-71
2023/10/10 07:47:29;;;;;;;7.93;3.90;;;14.80;98.20;;;;;;5098395;27;21200;-71
2023/10/10 07:49:56;;;;;;;5.67;4.00;;;14.80;98.50;;;;;;5099057;27;20633;-71
2023/10/10 07:52:23;;;;;;;9.00;3.90;;;14.80;98.00;;;;;;5097792;27;20635;-71
2023/10/10 07:54:53;;;;;;;5.30;3.23;;;14.90;97.80;;;;;;5099779;27;21002;-71
2023/10/10 07:57:25;;;;;;;19.50;4.67;;;14.90;97.50;;;;;;5095144;27;22303;-71
2023/10/10 07:59:56;;;;;;;18.00;4.83;;;15.00;97.50;;;;;;5092690;27;20625;-71
2023/10/10 08:02:31;;;;;;;9.37;4.17;;;15.10;96.20;;;;;;5093106;27;20627;-71
2023/10/10 08:05:10;;;;;;;9.47;4.80;;;15.20;95.40;;;;;;5092234;27;20636;-71
2023/10/10 08:07:37;;;;;;;8.53;4.00;;;15.20;95.80;;;;;;5092989;27;20905;-71
2023/10/10 08:10:14;;;;;;;7.57;3.33;;;15.30;95.90;;;;;;5092728;27;20724;-71
2023/10/10 08:12:42;;;;;;;6.67;3.43;;;15.30;96.10;;;;;;5093251;27;20627;-71
2023/10/10 08:15:20;;;;;;;9.27;4.87;;;15.40;96.40;;;;;;5091816;27;20723;-71
2023/10/10 08:17:53;;;;;;;7.43;4.43;;;15.50;95.00;;;;;;5091617;27;21035;-71
2023/10/10 08:20:39;;;;;;;4.47;3.33;;;15.60;95.40;;;;;;5091775;27;20624;-71
2023/10/10 08:23:06;;;;;;;7.70;4.50;;;15.70;95.70;;;;;;5093179;27;21006;-71
2023/10/10 08:25:33;;;;;;;7.30;3.50;;;15.90;95.20;;;;;;5092109;27;20708;-71
2023/10/10 08:28:01;;;;;;;7.73;3.40;;;16.00;94.70;;;;;;5095553;27;20627;-71
2023/10/10 08:30:28;;;;;;;4.00;2.77;;;16.20;94.80;;;;;;5096990;27;20616;-71
2023/10/10 08:32:57;;;;;;;5.77;2.97;;;16.30;93.70;;;;;;5097412;27;20625;-71
2023/10/10 08:35:27;;;;;;;9.53;3.23;;;16.40;94.30;;;;;;5099042;27;20627;-71
2023/10/10 08:37:54;;;;;;;15.30;4.00;;;16.50;93.80;;;;;;5096655;27;20636;-71
2023/10/10 08:40:21;;;;;;;12.40;3.20;;;16.70;93.30;;;;;;5097833;27;20719;-71
2023/10/10 08:42:50;;;;;;;10.57;3.07;;;16.70;94.20;;;;;;5097519;27;20724;-71
2023/10/10 08:45:23;;;;;;;8.50;4.33;;;16.80;93.70;;;;;;5097866;27;20638;-71
2023/10/10 08:47:58;;;;;;;7.13;4.60;;;16.90;93.60;;;;;;5096488;27;22146;-71
2023/10/10 08:50:27;;;;;;;5.93;3.90;;;17.10;94.20;;;;;;5097263;27;20618;-71
2023/10/10 08:52:54;;;;;;;7.33;3.40;;;17.20;94.10;;;;;;5097666;27;20631;-71
2023/10/10 08:55:26;;;;;;;11.93;4.30;;;17.30;93.90;;;;;;5097955;27;20618;-71
2023/10/10 08:57:55;;;;;;;3.80;3.50;;;17.40;93.30;;;;;;5098024;27;20660;-72
2023/10/10 09:00:22;;;;;;;8.73;3.30;;;17.60;93.50;;;;;;5096463;27;20655;-72
2023/10/10 09:02:50;;;;;;;4.70;3.70;;;17.80;93.00;;;;;;5096378;27;20634;-71
2023/10/10 09:05:19;;;;;;;7.43;4.60;;;17.80;92.60;;;;;;5097309;27;20651;-71
2023/10/10 09:07:47;;;;;;;8.23;3.33;;;17.80;92.60;;;;;;5097148;27;20731;-71
2023/10/10 09:10:14;;;;;;;7.70;4.00;;;17.90;93.00;;;;;;5097571;27;21233;-71
2023/10/10 09:12:55;;;;;;;6.13;4.30;;;18.00;92.40;;;;;;5098183;27;20651;-71
2023/10/10 09:15:23;;;;;;;15.33;5.47;;;18.20;92.20;;;;;;5098081;27;20629;-70
2023/10/10 09:17:55;;;;;;;8.10;3.90;;;18.30;91.90;;;;;;5094424;27;20672;-70
2023/10/10 09:20:28;;;;;;;6.00;4.60;;;18.30;92.10;;;;;;5098582;27;20698;-71
2023/10/10 09:23:02;;;;;;;7.90;6.10;;;18.30;91.70;;;;;;5098158;27;21030;-71
2023/10/10 09:25:41;;;;;;;6.37;3.70;;;18.40;91.80;;;;;;5098940;27;20669;-70
2023/10/10 09:28:11;;;;;;;11.10;4.07;;;18.40;92.00;;;;;;5096906;27;20656;-71
2023/10/10 09:30:45;;;;;;;11.30;4.50;;;18.40;92.70;;;;;;5095625;27;20625;-70
2023/10/10 09:33:22;;;;;;;4.27;3.17;;;18.60;91.90;;;;;;5096726;27;21151;-70
2023/10/10 09:35:53;;;;;;;5.30;3.63;;;18.70;91.70;;;;;;5096094;27;21043;-71
2023/10/10 09:38:26;;;;;;;9.33;3.93;;;18.80;91.60;;;;;;5095937;27;20624;-70
2023/10/10 09:41:10;;;;;;;7.63;3.80;;;18.90;91.20;;;;;;5095989;27;20680;-70
2023/10/10 09:43:49;;;;;;;7.50;3.73;;;18.90;91.40;;;;;;5097718;27;20727;-71
2023/10/10 09:46:23;;;;;;;8.77;3.53;;;19.00;91.70;;;;;;5097359;27;20667;-71
2023/10/10 09:49:17;;;;;;;7.83;4.30;;;19.10;91.40;;;;;;5096296;27;20631;-71
2023/10/10 09:54:35;;;;;;;8.33;3.33;;;19.30;91.10;;;;;;5095485;27;20635;-71
2023/10/10 09:57:08;;;;;;;6.33;3.57;;;19.40;91.10;;;;;;5094968;27;20682;-71
2023/10/10 09:59:37;;;;;;;6.60;3.20;;;19.40;91.30;;;;;;5094693;27;20963;-71
2023/10/10 10:02:05;;;;;;;11.17;3.53;;;19.50;90.70;;;;;;5095893;27;20624;-71
2023/10/10 10:04:41;;;;;;;9.10;3.90;;;19.50;90.60;;;;;;5097149;27;21169;-70
2023/10/10 10:07:37;;;;;;;6.67;3.40;;;19.50;90.30;;;;;;5097174;27;20633;-70
2023/10/10 10:10:33;;;;;;;14.10;4.10;;;19.50;90.20;;;;;;5095528;27;20632;-71
2023/10/10 10:13:19;;;;;;;4.67;3.90;;;19.50;88.70;;;;;;5096361;27;20621;-70
2023/10/10 10:16:15;;;;;;;3.97;2.40;;;19.70;86.30;;;;;;5095577;27;20629;-70
2023/10/10 10:18:47;;;;;;;8.43;3.30;;;19.70;84.30;;;;;;5096998;27;20621;-71
2023/10/10 10:21:28;;;;;;;8.03;3.87;;;19.80;83.70;;;;;;5097370;27;20632;-71
2023/10/10 10:24:15;;;;;;;4.37;2.97;;;19.80;84.30;;;;;;5094536;27;20625;-71
2023/10/10 10:26:44;;;;;;;9.00;3.43;;;19.90;84.70;;;;;;5095777;27;20628;-71
2023/10/10 10:29:26;;;;;;;8.47;3.50;;;20.00;86.00;;;;;;5095926;27;20635;-71
2023/10/10 10:31:59;;;;;;;6.53;3.10;;;20.10;86.90;;;;;;5095988;27;20660;-71
2023/10/10 10:34:34;;;;;;;20.03;3.90;;;20.10;86.10;;;;;;5096438;27;20690;-71
2023/10/10 10:37:12;;;;;;;7.43;3.10;;;20.10;84.60;;;;;;5095727;27;20677;-71
2023/10/10 10:40:09;;;;;;;8.80;3.77;;;20.20;85.30;;;;;;5098081;27;20678;-71
2023/10/10 10:42:34;;;;;;;28.73;3.53;;;20.30;85.70;;;;;;5096938;27;20635;-71
2023/10/10 10:45:25;;;;;;;5.13;3.20;;;20.40;85.70;;;;;;5096453;27;20666;-71
2023/10/10 10:47:54;;;;;;;7.30;3.10;;;20.50;86.10;;;;;;5095376;27;21012;-71
2023/10/10 10:50:44;;;;;;;8.27;3.50;;;20.40;86.00;;;;;;5094818;27;20640;-71
2023/10/10 10:53:30;;;;;;;7.00;3.37;;;20.50;84.80;;;;;;5090600;28;21161;-72
2023/10/10 10:59:11;;;;;;;16.63;4.03;;;20.60;85.90;;;;;;5095939;28;20613;-71
2023/10/10 11:01:42;;;;;;;4.57;2.90;;;20.60;86.90;;;;;;5094381;28;20635;-71
2023/10/10 11:04:14;;;;;;;9.40;4.07;;;20.70;86.00;;;;;;5095552;28;20792;-71
2023/10/10 11:06:50;;;;;;;9.43;4.20;;;20.80;86.80;;;;;;5095282;28;21314;-71
2023/10/10 11:09:28;;;;;;;9.73;3.20;;;20.90;86.50;;;;;;5095785;28;20622;-71
2023/10/10 11:12:01;;;;;;;8.67;4.10;;;21.00;86.80;;;;;;5098592;27;20666;-71
2023/10/10 11:14:30;;;;;;;5.50;2.77;;;21.10;86.60;;;;;;5100603;27;20648;-71
2023/10/10 11:16:57;;;;;;;6.43;3.40;;;21.10;87.20;;;;;;5100522;27;20669;-70
2023/10/10 11:19:39;;;;;;;5.37;3.20;;;21.20;86.10;;;;;;5103230;27;20715;-71
2023/10/10 11:22:12;;;;;;;4.97;3.20;;;21.20;85.70;;;;;;5099572;27;20634;-71
2023/10/10 11:24:39;;;;;;;8.23;3.70;;;21.20;85.00;;;;;;5100547;27;20945;-71
2023/10/10 11:27:21;;;;;;;6.50;3.20;;;21.30;84.80;;;;;;5099318;27;20976;-71
2023/10/10 11:29:52;;;;;;;3.97;3.20;;;21.40;85.20;;;;;;5099990;27;20730;-71
2023/10/10 11:32:25;;;;;;;5.67;3.00;;;21.40;84.70;;;;;;5099725;27;20616;-71
2023/10/10 11:34:56;;;;;;;4.93;3.20;;;21.60;83.20;;;;;;5100630;27;20946;-71
2023/10/10 11:37:26;;;;;;;7.47;2.63;;;21.50;84.70;;;;;;5097488;27;20669;-71
2023/10/10 11:40:19;;;;;;;18.70;3.30;;;21.50;83.60;;;;;;5101053;27;20728;-71
2023/10/10 11:42:47;;;;;;;10.67;3.40;;;21.60;83.50;;;;;;5102078;27;20734;-71
2023/10/10 11:45:19;;;;;;;6.50;3.63;;;21.70;82.10;;;;;;5099793;27;20621;-71
2023/10/10 11:47:46;;;;;;;3.60;2.80;;;21.70;82.40;;;;;;5098131;27;20762;-71
2023/10/10 11:50:15;;;;;;;6.27;2.83;;;21.90;81.40;;;;;;5099199;27;20626;-71
2023/10/10 11:52:52;;;;;;;7.30;3.50;;;21.90;81.60;;;;;;5097604;27;20764;-71
2023/10/10 11:55:20;;;;;;;6.67;3.57;;;22.00;81.30;;;;;;5097835;27;20616;-71
2023/10/10 11:57:49;;;;;;;5.43;3.47;;;21.90;81.10;;;;;;5099237;27;21246;-71
2023/10/10 12:00:22;;;;;;;10.03;3.17;;;22.10;80.90;;;;;;5098083;27;20659;-72
2023/10/10 12:02:50;;;;;;;9.33;3.90;;;22.10;81.40;;;;;;5099251;27;21003;-71
2023/10/10 12:08:00;;;;;;;10.90;4.20;;;22.30;80.10;;;;;;5100014;27;20631;-71
2023/10/10 12:10:40;;;;;;;5.80;3.40;;;22.40;80.90;;;;;;5099834;27;20623;-71
2023/10/10 12:13:09;;;;;;;6.47;3.87;;;22.50;79.30;;;;;;5098817;27;20673;-70
2023/10/10 12:15:40;;;;;;;6.33;3.50;;;22.40;81.10;;;;;;5098193;27;20687;-71
2023/10/10 12:18:09;;;;;;;8.50;4.63;;;22.50;79.90;;;;;;5101371;27;20760;-71
2023/10/10 12:20:36;;;;;;;8.87;4.03;;;22.50;80.50;;;;;;5098394;27;20748;-71
2023/10/10 12:23:04;;;;;;;6.80;2.90;;;22.50;79.20;;;;;;5099307;27;20623;-71
2023/10/10 12:25:31;;;;;;;6.97;3.30;;;22.60;78.90;;;;;;5098961;27;20608;-71
2023/10/10 12:28:00;;;;;;;6.67;3.13;;;22.70;79.10;;;;;;5097586;27;20738;-71
2023/10/10 12:30:27;;;;;;;6.20;3.47;;;22.60;79.40;;;;;;5098428;27;20715;-71
2023/10/10 12:32:56;;;;;;;7.23;2.37;;;22.60;79.70;;;;;;5097548;27;20672;-71
2023/10/10 12:35:25;;;;;;;6.73;2.87;;;22.60;80.10;;;;;;5098269;27;20707;-71
2023/10/10 12:38:01;;;;;;;2.73;2.53;;;22.60;80.60;;;;;;5099069;27;21133;-71
2023/10/10 12:40:28;;;;;;;8.50;3.20;;;22.70;79.60;;;;;;5100369;27;20941;-71
2023/10/10 12:42:55;;;;;;;7.27;4.17;;;22.70;78.70;;;;;;5097533;27;20631;-71
2023/10/10 12:45:21;;;;;;;8.50;4.43;;;22.60;78.40;;;;;;5097499;27;20731;-71
2023/10/10 12:47:48;;;;;;;10.70;4.07;;;22.60;78.50;;;;;;5099175;27;20630;-71
2023/10/10 12:50:16;;;;;;;6.40;3.10;;;22.70;78.80;;;;;;5096878;27;20656;-71
2023/10/10 12:52:46;;;;;;;7.53;3.30;;;22.80;79.20;;;;;;5097603;27;20616;-71
2023/10/10 12:55:13;;;;;;;8.00;3.20;;;22.70;78.40;;;;;;5098739;27;21047;-71
2023/10/10 12:57:40;;;;;;;5.53;3.33;;;22.80;77.90;;;;;;5096679;27;20655;-71
2023/10/10 13:00:33;;;;;;;4.73;3.23;;;22.70;76.90;;;;;;5098465;27;20620;-71
2023/10/10 13:03:00;;;;;;;8.63;4.13;;;22.70;77.20;;;;;;5098187;27;20628;-71
2023/10/10 13:05:28;;;;;;;6.10;3.23;;;22.80;75.40;;;;;;5097956;27;20634;-70
2023/10/10 13:07:58;;;;;;;10.47;3.80;;;22.90;74.00;;;;;;5093402;27;21072;-71
2023/10/10 13:10:27;;;;;;;7.57;3.30;;;22.90;73.80;;;;;;5091648;27;21859;-71
2023/10/10 13:12:54;;;;;;;5.70;3.63;;;22.80;73.80;;;;;;5089977;27;20647;-71
2023/10/10 13:15:29;;;;;;;8.30;4.20;;;22.80;75.00;;;;;;5091444;27;20628;-71
2023/10/10 13:20:39;;;;;;;6.60;3.10;;;22.90;74.50;;;;;;5091365;27;20628;-71
2023/10/10 13:23:07;;;;;;;8.20;3.07;;;22.90;75.30;;;;;;5091658;27;20626;-72
2023/10/10 13:25:37;;;;;;;6.60;3.10;;;23.00;73.90;;;;;;5090506;27;20626;-72
2023/10/10 13:28:09;;;;;;;6.57;3.03;;;22.90;73.80;;;;;;5091573;27;20755;-72
2023/10/10 13:30:38;;;;;;;6.40;3.23;;;22.90;73.70;;;;;;5091667;27;20676;-72
2023/10/10 13:33:06;;;;;;;6.10;3.90;;;22.80;73.20;;;;;;5091001;27;20628;-72
2023/10/10 13:35:36;;;;;;;6.10;3.40;;;22.90;73.80;;;;;;5091434;27;20931;-72
2023/10/10 13:38:06;;;;;;;7.93;3.50;;;23.00;73.00;;;;;;5090742;27;20659;-72
2023/10/10 13:40:37;;;;;;;8.60;2.87;;;23.00;72.60;;;;;;5091677;27;20632;-72
2023/10/10 13:43:08;;;;;;;11.20;4.00;;;22.90;73.50;;;;;;5091097;27;20635;-72
2023/10/10 13:45:39;;;;;;;6.87;3.13;;;22.80;74.80;;;;;;5092252;27;21031;-72
2023/10/10 13:48:09;;;;;;;9.37;3.77;;;22.80;75.80;;;;;;5091248;27;20764;-72
2023/10/10 13:50:42;;;;;;;13.70;3.40;;;22.70;74.70;;;;;;5090554;27;21153;-72
2023/10/10 13:53:12;;;;;;;7.57;3.60;;;22.70;75.10;;;;;;5091114;27;20974;-72
2023/10/10 13:55:41;;;;;;;5.73;2.63;;;22.70;75.20;;;;;;5090353;27;20624;-71
2023/10/10 13:58:10;;;;;;;8.43;3.37;;;22.70;75.40;;;;;;5091041;27;20666;-71
2023/10/10 14:00:39;;;;;;;6.03;3.63;;;22.70;75.60;;;;;;5091285;27;20651;-72
2023/10/10 14:03:06;;;;;;;10.00;3.17;;;22.70;76.50;;;;;;5090256;27;20734;-71
2023/10/10 14:05:35;;;;;;;4.97;3.30;;;22.70;75.30;;;;;;5091452;27;20624;-72
2023/10/10 14:08:06;;;;;;;9.63;3.33;;;22.70;78.50;;;;;;5089642;27;20718;-71
2023/10/10 14:10:38;;;;;;;10.23;3.93;;;22.50;78.50;;;;;;5091269;27;21598;-71
2023/10/10 14:13:19;;;;;;;10.13;3.50;;;22.40;78.50;;;;;;5090524;27;21000;-71
2023/10/10 14:15:54;;;;;;;9.83;3.53;;;22.30;77.20;;;;;;5089874;27;20631;-72
2023/10/10 14:18:26;;;;;;;13.53;3.73;;;22.20;77.10;;;;;;5091106;27;20667;-71
2023/10/10 14:20:53;;;;;;;7.80;3.93;;;22.20;78.70;;;;;;5090767;27;20626;-72
2023/10/10 14:23:20;;;;;;;5.20;3.10;;;22.30;75.30;;;;;;5090268;27;23147;-72
2023/10/10 14:25:49;;;;;;;10.27;4.40;;;22.30;75.30;;;;;;5090817;27;20631;-72
2023/10/10 14:28:17;;;;;;;6.73;3.20;;;22.20;76.70;;;;;;5091316;27;20619;-72
2023/10/10 14:30:44;;;;;;;8.40;3.97;;;22.10;76.90;;;;;;5092040;27;20627;-72
2023/10/10 14:33:11;;;;;;;7.70;3.70;;;22.10;76.70;;;;;;5091291;27;20723;-73
2023/10/10 14:35:38;;;;;;;13.03;4.27;;;22.00;74.40;;;;;;5091505;27;20642;-71
2023/10/10 14:38:05;;;;;;;8.57;3.93;;;22.00;74.90;;;;;;5092915;27;21166;-72
2023/10/10 14:40:33;;;;;;;5.10;3.30;;;22.00;76.10;;;;;;5090879;27;20634;-72
2023/10/10 14:43:05;;;;;;;11.80;3.70;;;22.00;73.40;;;;;;5091041;27;21438;-72
2023/10/10 14:45:33;;;;;;;10.33;3.40;;;22.00;75.60;;;;;;5089858;27;20628;-72
2023/10/10 14:48:04;;;;;;;10.23;3.23;;;21.90;75.40;;;;;;5090741;27;21156;-71
2023/10/10 14:50:37;;;;;;;5.93;3.33;;;21.90;76.10;;;;;;5090435;27;20618;-72
2023/10/10 14:53:08;;;;;;;6.07;3.40;;;21.80;76.10;;;;;;5088329;27;20620;-72
2023/10/10 14:55:44;;;;;;;5.10;3.40;;;21.80;76.10;;;;;;5089388;28;20636;-72
2023/10/10 14:58:12;;;;;;;7.10;4.50;;;21.80;74.90;;;;;;5088623;27;20819;-72
2023/10/10 15:00:41;;;;;;;5.93;3.27;;;21.70;76.80;;;;;;5089109;28;21168;-72
2023/10/10 15:03:16;;;;;;;5.93;4.50;;;21.60;76.80;;;;;;5090541;28;20963;-72
2023/10/10 15:05:50;;;;;;;9.13;3.50;;;21.60;74.80;;;;;;5088218;28;20670;-72
2023/10/10 15:08:19;;;;;;;12.43;5.17;;;21.50;79.30;;;;;;5089853;28;20669;-71
2023/10/10 15:10:46;;;;;;;4.47;2.80;;;21.40;77.90;;;;;;5088501;28;20625;-72
2023/10/10 15:13:16;;;;;;;15.53;3.63;;;21.40;79.40;;;;;;5089793;28;22828;-69